sensor_id;sensor_type;location;lat;lon;timestamp;P1;durP1;ratioP1;P2;durP2;ratioP2
75550;SDS011;65071;53.082;18.218;2023-08-20T00:00:16;20.60;;;18.00;;
75550;SDS011;65071;53.082;18.218;2023-08-20T00:03:04;21.90;;;19.10;;
75550;SDS011;65071;53.082;18.218;2023-08-20T00:05:37;22.80;;;18.40;;
75550;SDS011;65071;53.082;18.218;2023-08-20T00:08:05;20.60;;;17.70;;
75550;SDS011;65071;53.082;18.218;2023-08-20T00:10:32;20.10;;;17.10;;
75550;SDS011;65071;53.082;18.218;2023-08-20T00:12:58;20.00;;;17.70;;
75550;SDS011;65071;53.082;18.218;2023-08-20T00:15:25;21.40;;;17.30;;
75550;SDS011;65071;53.082;18.218;2023-08-20T00:17:55;19.50;;;17.20;;
75550;SDS011;65071;53.082;18.218;2023-08-20T00:20:22;20.30;;;17.60;;
75550;SDS011;65071;53.082;18.218;2023-08-20T00:22:49;21.70;;;17.30;;
75550;SDS011;65071;53.082;18.218;2023-08-20T00:25:16;20.00;;;17.00;;
75550;SDS011;65071;53.082;18.218;2023-08-20T00:27:43;21.70;;;18.10;;
75550;SDS011;65071;53.082;18.218;2023-08-20T00:30:10;22.20;;;18.50;;
75550;SDS011;65071;53.082;18.218;2023-08-20T00:32:38;21.20;;;18.30;;
75550;SDS011;65071;53.082;18.218;2023-08-20T00:35:05;21.20;;;17.90;;
75550;SDS011;65071;53.082;18.218;2023-08-20T00:37:33;21.60;;;18.20;;
75550;SDS011;65071;53.082;18.218;2023-08-20T00:40:00;21.00;;;17.70;;
75550;SDS011;65071;53.082;18.218;2023-08-20T00:42:27;21.80;;;17.90;;
75550;SDS011;65071;53.082;18.218;2023-08-20T00:44:54;21.60;;;17.60;;
75550;SDS011;65071;53.082;18.218;2023-08-20T00:47:21;18.70;;;16.30;;
75550;SDS011;65071;53.082;18.218;2023-08-20T00:49:47;20.20;;;16.20;;
75550;SDS011;65071;53.082;18.218;2023-08-20T00:52:16;20.40;;;17.20;;
75550;SDS011;65071;53.082;18.218;2023-08-20T00:57:13;22.90;;;17.60;;
75550;SDS011;65071;53.082;18.218;2023-08-20T00:59:41;20.60;;;17.30;;
75550;SDS011;65071;53.082;18.218;2023-08-20T01:02:09;18.70;;;16.60;;
75550;SDS011;65071;53.082;18.218;2023-08-20T01:04:35;22.10;;;17.60;;
75550;SDS011;65071;53.082;18.218;2023-08-20T01:10:08;20.40;;;17.60;;
75550;SDS011;65071;53.082;18.218;2023-08-20T01:12:44;22.20;;;18.10;;
75550;SDS011;65071;53.082;18.218;2023-08-20T01:15:12;21.20;;;17.90;;
75550;SDS011;65071;53.082;18.218;2023-08-20T01:17:40;22.20;;;18.40;;
75550;SDS011;65071;53.082;18.218;2023-08-20T01:20:10;21.50;;;18.80;;
75550;SDS011;65071;53.082;18.218;2023-08-20T01:22:49;23.50;;;17.70;;
75550;SDS011;65071;53.082;18.218;2023-08-20T01:30:57;21.40;;;17.90;;
75550;SDS011;65071;53.082;18.218;2023-08-20T01:38:18;22.00;;;17.70;;
75550;SDS011;65071;53.082;18.218;2023-08-20T01:40:45;21.50;;;17.50;;
75550;SDS011;65071;53.082;18.218;2023-08-20T01:43:11;21.00;;;17.90;;
75550;SDS011;65071;53.082;18.218;2023-08-20T01:45:38;19.90;;;16.50;;
75550;SDS011;65071;53.082;18.218;2023-08-20T01:48:05;21.10;;;17.30;;
75550;SDS011;65071;53.082;18.218;2023-08-20T01:50:32;19.90;;;17.10;;
75550;SDS011;65071;53.082;18.218;2023-08-20T01:53:00;20.80;;;17.60;;
75550;SDS011;65071;53.082;18.218;2023-08-20T01:55:27;22.40;;;17.30;;
75550;SDS011;65071;53.082;18.218;2023-08-20T01:57:53;21.10;;;17.80;;
75550;SDS011;65071;53.082;18.218;2023-08-20T02:00:20;19.70;;;16.80;;
75550;SDS011;65071;53.082;18.218;2023-08-20T02:02:46;21.00;;;18.10;;
75550;SDS011;65071;53.082;18.218;2023-08-20T02:05:13;18.80;;;16.70;;
75550;SDS011;65071;53.082;18.218;2023-08-20T02:07:39;20.60;;;17.10;;
75550;SDS011;65071;53.082;18.218;2023-08-20T02:10:06;21.40;;;17.50;;
75550;SDS011;65071;53.082;18.218;2023-08-20T02:12:33;20.40;;;17.40;;
75550;SDS011;65071;53.082;18.218;2023-08-20T02:15:00;22.60;;;17.10;;
75550;SDS011;65071;53.082;18.218;2023-08-20T02:17:26;21.70;;;18.10;;
75550;SDS011;65071;53.082;18.218;2023-08-20T02:19:53;21.70;;;18.40;;
75550;SDS011;65071;53.082;18.218;2023-08-20T02:22:19;24.90;;;19.20;;
75550;SDS011;65071;53.082;18.218;2023-08-20T02:24:47;21.10;;;17.50;;
75550;SDS011;65071;53.082;18.218;2023-08-20T02:27:14;20.40;;;16.50;;
75550;SDS011;65071;53.082;18.218;2023-08-20T02:29:41;21.20;;;17.70;;
75550;SDS011;65071;53.082;18.218;2023-08-20T02:32:07;20.10;;;17.00;;
75550;SDS011;65071;53.082;18.218;2023-08-20T02:34:34;21.40;;;17.40;;
75550;SDS011;65071;53.082;18.218;2023-08-20T02:37:00;22.70;;;18.60;;
75550;SDS011;65071;53.082;18.218;2023-08-20T02:39:27;21.40;;;17.40;;
75550;SDS011;65071;53.082;18.218;2023-08-20T02:41:53;21.00;;;17.30;;
75550;SDS011;65071;53.082;18.218;2023-08-20T02:44:20;21.80;;;17.90;;
75550;SDS011;65071;53.082;18.218;2023-08-20T02:46:47;22.80;;;18.50;;
75550;SDS011;65071;53.082;18.218;2023-08-20T02:49:13;20.30;;;17.80;;
75550;SDS011;65071;53.082;18.218;2023-08-20T02:51:42;23.20;;;18.30;;
75550;SDS011;65071;53.082;18.218;2023-08-20T02:54:09;21.20;;;18.00;;
75550;SDS011;65071;53.082;18.218;2023-08-20T02:56:36;22.70;;;17.70;;
75550;SDS011;65071;53.082;18.218;2023-08-20T02:59:02;22.30;;;17.90;;
75550;SDS011;65071;53.082;18.218;2023-08-20T03:01:29;22.20;;;18.70;;
75550;SDS011;65071;53.082;18.218;2023-08-20T03:03:56;22.20;;;18.50;;
75550;SDS011;65071;53.082;18.218;2023-08-20T03:06:23;24.10;;;19.20;;
75550;SDS011;65071;53.082;18.218;2023-08-20T03:08:50;23.00;;;19.20;;
75550;SDS011;65071;53.082;18.218;2023-08-20T03:11:16;24.30;;;18.70;;
75550;SDS011;65071;53.082;18.218;2023-08-20T03:13:44;21.40;;;17.60;;
75550;SDS011;65071;53.082;18.218;2023-08-20T03:16:11;22.80;;;18.80;;
75550;SDS011;65071;53.082;18.218;2023-08-20T03:18:37;22.70;;;18.40;;
75550;SDS011;65071;53.082;18.218;2023-08-20T03:21:04;22.50;;;19.20;;
75550;SDS011;65071;53.082;18.218;2023-08-20T03:23:30;21.60;;;18.20;;
75550;SDS011;65071;53.082;18.218;2023-08-20T03:25:57;20.90;;;17.50;;
75550;SDS011;65071;53.082;18.218;2023-08-20T03:28:25;22.60;;;18.60;;
75550;SDS011;65071;53.082;18.218;2023-08-20T03:30:53;23.70;;;19.20;;
75550;SDS011;65071;53.082;18.218;2023-08-20T03:33:20;24.60;;;19.50;;
75550;SDS011;65071;53.082;18.218;2023-08-20T03:35:47;25.10;;;19.40;;
75550;SDS011;65071;53.082;18.218;2023-08-20T03:38:14;24.60;;;19.00;;
75550;SDS011;65071;53.082;18.218;2023-08-20T03:40:40;24.40;;;18.90;;
75550;SDS011;65071;53.082;18.218;2023-08-20T03:43:09;23.10;;;19.00;;
75550;SDS011;65071;53.082;18.218;2023-08-20T03:45:36;23.20;;;19.30;;
75550;SDS011;65071;53.082;18.218;2023-08-20T03:48:03;25.10;;;20.30;;
75550;SDS011;65071;53.082;18.218;2023-08-20T03:50:30;23.00;;;19.10;;
75550;SDS011;65071;53.082;18.218;2023-08-20T03:52:56;23.60;;;18.10;;
75550;SDS011;65071;53.082;18.218;2023-08-20T03:55:23;22.40;;;18.50;;
75550;SDS011;65071;53.082;18.218;2023-08-20T03:57:49;21.20;;;17.60;;
75550;SDS011;65071;53.082;18.218;2023-08-20T04:00:16;22.90;;;18.00;;
75550;SDS011;65071;53.082;18.218;2023-08-20T04:02:44;23.10;;;17.30;;
75550;SDS011;65071;53.082;18.218;2023-08-20T04:05:10;21.90;;;18.00;;
75550;SDS011;65071;53.082;18.218;2023-08-20T04:07:37;23.70;;;18.50;;
75550;SDS011;65071;53.082;18.218;2023-08-20T04:10:04;22.30;;;18.90;;
75550;SDS011;65071;53.082;18.218;2023-08-20T04:12:31;22.90;;;18.60;;
75550;SDS011;65071;53.082;18.218;2023-08-20T04:14:58;27.50;;;21.20;;
75550;SDS011;65071;53.082;18.218;2023-08-20T04:17:24;25.90;;;19.90;;
75550;SDS011;65071;53.082;18.218;2023-08-20T04:19:51;25.40;;;19.80;;
75550;SDS011;65071;53.082;18.218;2023-08-20T04:22:18;25.80;;;21.40;;
75550;SDS011;65071;53.082;18.218;2023-08-20T04:24:44;28.20;;;21.00;;
75550;SDS011;65071;53.082;18.218;2023-08-20T04:27:11;29.10;;;21.40;;
75550;SDS011;65071;53.082;18.218;2023-08-20T04:29:38;25.10;;;20.20;;
75550;SDS011;65071;53.082;18.218;2023-08-20T04:32:05;24.20;;;20.60;;
75550;SDS011;65071;53.082;18.218;2023-08-20T04:34:32;24.70;;;20.50;;
75550;SDS011;65071;53.082;18.218;2023-08-20T04:36:58;22.50;;;19.70;;
75550;SDS011;65071;53.082;18.218;2023-08-20T04:39:25;23.30;;;19.60;;
75550;SDS011;65071;53.082;18.218;2023-08-20T04:41:53;24.30;;;18.80;;
75550;SDS011;65071;53.082;18.218;2023-08-20T04:44:19;22.90;;;18.30;;
75550;SDS011;65071;53.082;18.218;2023-08-20T04:46:47;23.00;;;19.20;;
75550;SDS011;65071;53.082;18.218;2023-08-20T04:49:13;24.00;;;18.70;;
75550;SDS011;65071;53.082;18.218;2023-08-20T04:51:40;24.40;;;19.80;;
75550;SDS011;65071;53.082;18.218;2023-08-20T04:54:07;21.60;;;18.60;;
75550;SDS011;65071;53.082;18.218;2023-08-20T04:56:33;23.70;;;20.60;;
75550;SDS011;65071;53.082;18.218;2023-08-20T04:59:00;23.10;;;20.10;;
75550;SDS011;65071;53.082;18.218;2023-08-20T05:01:42;23.60;;;18.70;;
75550;SDS011;65071;53.082;18.218;2023-08-20T05:04:09;22.90;;;19.50;;
75550;SDS011;65071;53.082;18.218;2023-08-20T05:06:36;25.10;;;21.20;;
75550;SDS011;65071;53.082;18.218;2023-08-20T05:09:03;23.20;;;19.90;;
75550;SDS011;65071;53.082;18.218;2023-08-20T05:11:30;21.80;;;18.50;;
75550;SDS011;65071;53.082;18.218;2023-08-20T05:14:00;21.80;;;19.10;;
75550;SDS011;65071;53.082;18.218;2023-08-20T05:16:27;21.30;;;18.10;;
75550;SDS011;65071;53.082;18.218;2023-08-20T05:18:53;24.00;;;20.00;;
75550;SDS011;65071;53.082;18.218;2023-08-20T05:21:20;20.90;;;18.70;;
75550;SDS011;65071;53.082;18.218;2023-08-20T05:23:47;22.20;;;19.30;;
75550;SDS011;65071;53.082;18.218;2023-08-20T05:26:14;22.70;;;19.00;;
75550;SDS011;65071;53.082;18.218;2023-08-20T05:28:43;23.80;;;19.90;;
75550;SDS011;65071;53.082;18.218;2023-08-20T05:31:10;22.30;;;19.60;;
75550;SDS011;65071;53.082;18.218;2023-08-20T05:33:37;25.10;;;20.20;;
75550;SDS011;65071;53.082;18.218;2023-08-20T05:36:03;22.70;;;18.60;;
75550;SDS011;65071;53.082;18.218;2023-08-20T05:38:30;22.40;;;20.00;;
75550;SDS011;65071;53.082;18.218;2023-08-20T05:40:57;25.40;;;20.40;;
75550;SDS011;65071;53.082;18.218;2023-08-20T05:43:23;23.50;;;20.70;;
75550;SDS011;65071;53.082;18.218;2023-08-20T05:45:50;23.90;;;19.00;;
75550;SDS011;65071;53.082;18.218;2023-08-20T05:48:19;25.90;;;20.70;;
75550;SDS011;65071;53.082;18.218;2023-08-20T05:50:46;23.20;;;20.10;;
75550;SDS011;65071;53.082;18.218;2023-08-20T05:53:13;23.80;;;20.40;;
75550;SDS011;65071;53.082;18.218;2023-08-20T05:55:40;22.90;;;19.10;;
75550;SDS011;65071;53.082;18.218;2023-08-20T05:58:06;24.30;;;20.50;;
75550;SDS011;65071;53.082;18.218;2023-08-20T06:00:33;25.40;;;20.70;;
75550;SDS011;65071;53.082;18.218;2023-08-20T06:02:59;23.50;;;20.20;;
75550;SDS011;65071;53.082;18.218;2023-08-20T06:05:27;22.60;;;20.20;;
75550;SDS011;65071;53.082;18.218;2023-08-20T06:07:53;22.70;;;19.30;;
75550;SDS011;65071;53.082;18.218;2023-08-20T06:10:20;23.30;;;19.70;;
75550;SDS011;65071;53.082;18.218;2023-08-20T06:12:46;22.70;;;20.30;;
75550;SDS011;65071;53.082;18.218;2023-08-20T06:15:13;23.00;;;20.50;;
75550;SDS011;65071;53.082;18.218;2023-08-20T06:17:40;21.30;;;19.10;;
75550;SDS011;65071;53.082;18.218;2023-08-20T06:20:07;24.20;;;19.00;;
75550;SDS011;65071;53.082;18.218;2023-08-20T06:22:34;20.60;;;17.90;;
75550;SDS011;65071;53.082;18.218;2023-08-20T06:25:01;19.30;;;16.60;;
75550;SDS011;65071;53.082;18.218;2023-08-20T06:27:28;18.40;;;16.40;;
75550;SDS011;65071;53.082;18.218;2023-08-20T06:29:55;19.20;;;17.10;;
75550;SDS011;65071;53.082;18.218;2023-08-20T06:32:22;17.20;;;15.40;;
75550;SDS011;65071;53.082;18.218;2023-08-20T06:34:49;19.20;;;17.10;;
75550;SDS011;65071;53.082;18.218;2023-08-20T06:37:16;19.40;;;16.30;;
75550;SDS011;65071;53.082;18.218;2023-08-20T06:39:42;18.00;;;15.90;;
75550;SDS011;65071;53.082;18.218;2023-08-20T06:42:09;17.70;;;15.60;;
75550;SDS011;65071;53.082;18.218;2023-08-20T06:44:36;19.40;;;17.40;;
75550;SDS011;65071;53.082;18.218;2023-08-20T06:47:03;19.60;;;16.50;;
75550;SDS011;65071;53.082;18.218;2023-08-20T06:49:29;18.90;;;17.00;;
75550;SDS011;65071;53.082;18.218;2023-08-20T06:51:56;17.80;;;15.50;;
75550;SDS011;65071;53.082;18.218;2023-08-20T06:54:22;17.50;;;15.40;;
75550;SDS011;65071;53.082;18.218;2023-08-20T06:56:49;16.90;;;15.20;;
75550;SDS011;65071;53.082;18.218;2023-08-20T06:59:16;19.50;;;15.80;;
75550;SDS011;65071;53.082;18.218;2023-08-20T07:01:43;14.80;;;13.30;;
75550;SDS011;65071;53.082;18.218;2023-08-20T07:04:10;17.60;;;15.60;;
75550;SDS011;65071;53.082;18.218;2023-08-20T07:06:37;16.00;;;14.30;;
75550;SDS011;65071;53.082;18.218;2023-08-20T07:09:03;14.30;;;12.80;;
75550;SDS011;65071;53.082;18.218;2023-08-20T07:11:30;14.90;;;13.10;;
75550;SDS011;65071;53.082;18.218;2023-08-20T07:13:56;15.90;;;13.10;;
75550;SDS011;65071;53.082;18.218;2023-08-20T07:16:23;15.70;;;12.50;;
75550;SDS011;65071;53.082;18.218;2023-08-20T07:18:49;13.70;;;11.90;;
75550;SDS011;65071;53.082;18.218;2023-08-20T07:21:16;13.00;;;11.20;;
75550;SDS011;65071;53.082;18.218;2023-08-20T07:23:42;12.90;;;11.60;;
75550;SDS011;65071;53.082;18.218;2023-08-20T07:26:10;14.10;;;12.60;;
75550;SDS011;65071;53.082;18.218;2023-08-20T07:28:41;12.50;;;11.20;;
75550;SDS011;65071;53.082;18.218;2023-08-20T07:31:27;13.30;;;11.30;;
75550;SDS011;65071;53.082;18.218;2023-08-20T07:33:55;12.90;;;11.60;;
75550;SDS011;65071;53.082;18.218;2023-08-20T07:36:23;12.30;;;11.00;;
75550;SDS011;65071;53.082;18.218;2023-08-20T07:38:51;12.20;;;11.00;;
75550;SDS011;65071;53.082;18.218;2023-08-20T07:41:20;12.00;;;10.90;;
75550;SDS011;65071;53.082;18.218;2023-08-20T07:43:48;11.20;;;10.10;;
75550;SDS011;65071;53.082;18.218;2023-08-20T07:46:15;11.40;;;10.30;;
75550;SDS011;65071;53.082;18.218;2023-08-20T07:48:41;11.10;;;9.90;;
75550;SDS011;65071;53.082;18.218;2023-08-20T07:51:09;10.70;;;9.70;;
75550;SDS011;65071;53.082;18.218;2023-08-20T07:53:36;10.50;;;9.40;;
75550;SDS011;65071;53.082;18.218;2023-08-20T07:56:02;9.90;;;8.90;;
75550;SDS011;65071;53.082;18.218;2023-08-20T07:58:29;9.80;;;8.60;;
75550;SDS011;65071;53.082;18.218;2023-08-20T08:00:56;10.80;;;9.70;;
75550;SDS011;65071;53.082;18.218;2023-08-20T08:03:24;10.70;;;9.50;;
75550;SDS011;65071;53.082;18.218;2023-08-20T08:05:53;10.90;;;9.70;;
75550;SDS011;65071;53.082;18.218;2023-08-20T08:08:22;10.80;;;9.80;;
75550;SDS011;65071;53.082;18.218;2023-08-20T08:10:49;12.40;;;10.20;;
75550;SDS011;65071;53.082;18.218;2023-08-20T08:13:18;11.10;;;9.80;;
75550;SDS011;65071;53.082;18.218;2023-08-20T08:15:47;11.20;;;10.00;;
75550;SDS011;65071;53.082;18.218;2023-08-20T08:18:14;11.50;;;10.30;;
75550;SDS011;65071;53.082;18.218;2023-08-20T08:20:41;10.80;;;9.60;;
75550;SDS011;65071;53.082;18.218;2023-08-20T08:23:08;11.50;;;10.30;;
75550;SDS011;65071;53.082;18.218;2023-08-20T08:25:34;11.20;;;10.10;;
75550;SDS011;65071;53.082;18.218;2023-08-20T08:28:01;11.40;;;9.70;;
75550;SDS011;65071;53.082;18.218;2023-08-20T08:30:27;10.30;;;9.40;;
75550;SDS011;65071;53.082;18.218;2023-08-20T08:32:55;11.00;;;10.00;;
75550;SDS011;65071;53.082;18.218;2023-08-20T08:35:22;10.20;;;9.20;;
75550;SDS011;65071;53.082;18.218;2023-08-20T08:37:48;11.00;;;10.00;;
75550;SDS011;65071;53.082;18.218;2023-08-20T08:40:15;9.10;;;8.30;;
75550;SDS011;65071;53.082;18.218;2023-08-20T08:42:42;9.50;;;8.60;;
75550;SDS011;65071;53.082;18.218;2023-08-20T08:45:09;9.70;;;8.70;;
75550;SDS011;65071;53.082;18.218;2023-08-20T08:47:39;8.90;;;8.10;;
75550;SDS011;65071;53.082;18.218;2023-08-20T08:50:05;8.90;;;7.80;;
75550;SDS011;65071;53.082;18.218;2023-08-20T08:52:33;9.20;;;8.30;;
75550;SDS011;65071;53.082;18.218;2023-08-20T08:55:04;8.20;;;7.10;;
75550;SDS011;65071;53.082;18.218;2023-08-20T08:57:37;9.40;;;7.60;;
75550;SDS011;65071;53.082;18.218;2023-08-20T09:00:04;8.20;;;7.50;;
75550;SDS011;65071;53.082;18.218;2023-08-20T09:02:33;7.60;;;6.90;;
75550;SDS011;65071;53.082;18.218;2023-08-20T09:04:59;7.30;;;6.60;;
75550;SDS011;65071;53.082;18.218;2023-08-20T09:07:26;7.00;;;6.40;;
75550;SDS011;65071;53.082;18.218;2023-08-20T09:09:57;7.20;;;6.50;;
75550;SDS011;65071;53.082;18.218;2023-08-20T09:12:25;7.50;;;6.80;;
75550;SDS011;65071;53.082;18.218;2023-08-20T09:14:53;8.20;;;7.30;;
75550;SDS011;65071;53.082;18.218;2023-08-20T09:17:21;7.90;;;7.10;;
75550;SDS011;65071;53.082;18.218;2023-08-20T09:19:51;7.70;;;7.00;;
75550;SDS011;65071;53.082;18.218;2023-08-20T09:22:21;7.90;;;7.20;;
75550;SDS011;65071;53.082;18.218;2023-08-20T09:24:52;8.00;;;7.00;;
75550;SDS011;65071;53.082;18.218;2023-08-20T09:27:21;7.80;;;7.10;;
75550;SDS011;65071;53.082;18.218;2023-08-20T09:29:52;8.10;;;7.00;;
75550;SDS011;65071;53.082;18.218;2023-08-20T09:32:25;7.40;;;6.70;;
75550;SDS011;65071;53.082;18.218;2023-08-20T09:34:53;8.50;;;7.30;;
75550;SDS011;65071;53.082;18.218;2023-08-20T09:37:21;7.80;;;7.10;;
75550;SDS011;65071;53.082;18.218;2023-08-20T09:42:15;7.80;;;7.00;;
75550;SDS011;65071;53.082;18.218;2023-08-20T09:44:43;7.60;;;6.90;;
75550;SDS011;65071;53.082;18.218;2023-08-20T09:47:12;8.20;;;7.40;;
75550;SDS011;65071;53.082;18.218;2023-08-20T09:49:43;7.50;;;6.80;;
75550;SDS011;65071;53.082;18.218;2023-08-20T09:52:12;7.80;;;6.70;;
75550;SDS011;65071;53.082;18.218;2023-08-20T09:57:43;8.30;;;7.50;;
75550;SDS011;65071;53.082;18.218;2023-08-20T10:00:11;7.90;;;7.10;;
75550;SDS011;65071;53.082;18.218;2023-08-20T10:02:41;8.20;;;7.00;;
75550;SDS011;65071;53.082;18.218;2023-08-20T10:05:10;6.80;;;6.20;;
75550;SDS011;65071;53.082;18.218;2023-08-20T10:07:38;7.30;;;6.70;;
75550;SDS011;65071;53.082;18.218;2023-08-20T10:10:05;7.30;;;6.60;;
75550;SDS011;65071;53.082;18.218;2023-08-20T10:12:33;8.00;;;7.20;;
75550;SDS011;65071;53.082;18.218;2023-08-20T10:15:01;6.70;;;6.10;;
75550;SDS011;65071;53.082;18.218;2023-08-20T10:17:29;7.70;;;6.70;;
75550;SDS011;65071;53.082;18.218;2023-08-20T10:19:57;7.80;;;7.10;;
75550;SDS011;65071;53.082;18.218;2023-08-20T10:25:09;7.00;;;6.30;;
75550;SDS011;65071;53.082;18.218;2023-08-20T10:27:38;7.20;;;6.50;;
75550;SDS011;65071;53.082;18.218;2023-08-20T10:30:17;7.40;;;6.70;;
75550;SDS011;65071;53.082;18.218;2023-08-20T10:35:24;7.60;;;6.10;;
75550;SDS011;65071;53.082;18.218;2023-08-20T10:43:26;7.70;;;7.00;;
75550;SDS011;65071;53.082;18.218;2023-08-20T10:51:33;7.30;;;6.10;;
75550;SDS011;65071;53.082;18.218;2023-08-20T10:54:04;6.70;;;6.10;;
75550;SDS011;65071;53.082;18.218;2023-08-20T10:56:39;7.40;;;6.70;;
75550;SDS011;65071;53.082;18.218;2023-08-20T10:59:08;6.90;;;6.40;;
75550;SDS011;65071;53.082;18.218;2023-08-20T11:01:39;7.20;;;6.50;;
75550;SDS011;65071;53.082;18.218;2023-08-20T11:04:06;6.70;;;6.00;;
75550;SDS011;65071;53.082;18.218;2023-08-20T11:06:35;7.60;;;6.80;;
75550;SDS011;65071;53.082;18.218;2023-08-20T11:09:02;7.80;;;7.00;;
75550;SDS011;65071;53.082;18.218;2023-08-20T11:11:34;6.80;;;6.10;;
75550;SDS011;65071;53.082;18.218;2023-08-20T11:14:04;7.80;;;7.10;;
75550;SDS011;65071;53.082;18.218;2023-08-20T11:16:34;10.00;;;7.80;;
75550;SDS011;65071;53.082;18.218;2023-08-20T11:19:03;8.60;;;7.80;;
75550;SDS011;65071;53.082;18.218;2023-08-20T11:21:35;7.40;;;6.70;;
75550;SDS011;65071;53.082;18.218;2023-08-20T11:24:05;7.90;;;6.90;;
75550;SDS011;65071;53.082;18.218;2023-08-20T11:26:36;7.00;;;6.40;;
75550;SDS011;65071;53.082;18.218;2023-08-20T11:29:06;7.30;;;6.60;;
75550;SDS011;65071;53.082;18.218;2023-08-20T11:31:34;7.50;;;6.80;;
75550;SDS011;65071;53.082;18.218;2023-08-20T11:34:02;7.40;;;6.70;;
75550;SDS011;65071;53.082;18.218;2023-08-20T11:36:30;8.60;;;7.90;;
75550;SDS011;65071;53.082;18.218;2023-08-20T11:38:57;8.20;;;7.20;;
75550;SDS011;65071;53.082;18.218;2023-08-20T11:41:24;8.10;;;7.30;;
75550;SDS011;65071;53.082;18.218;2023-08-20T11:43:52;6.70;;;6.10;;
75550;SDS011;65071;53.082;18.218;2023-08-20T11:46:20;7.00;;;6.30;;
75550;SDS011;65071;53.082;18.218;2023-08-20T11:51:37;7.80;;;7.00;;
75550;SDS011;65071;53.082;18.218;2023-08-20T11:54:06;7.50;;;6.80;;
75550;SDS011;65071;53.082;18.218;2023-08-20T11:56:34;8.80;;;7.00;;
75550;SDS011;65071;53.082;18.218;2023-08-20T11:59:01;8.00;;;6.50;;
75550;SDS011;65071;53.082;18.218;2023-08-20T12:01:31;7.10;;;6.20;;
75550;SDS011;65071;53.082;18.218;2023-08-20T12:03:59;6.70;;;5.90;;
75550;SDS011;65071;53.082;18.218;2023-08-20T12:06:36;6.60;;;6.00;;
75550;SDS011;65071;53.082;18.218;2023-08-20T12:09:22;6.90;;;6.30;;
75550;SDS011;65071;53.082;18.218;2023-08-20T12:11:49;6.80;;;6.10;;
75550;SDS011;65071;53.082;18.218;2023-08-20T12:14:17;7.20;;;6.50;;
75550;SDS011;65071;53.082;18.218;2023-08-20T12:16:44;6.70;;;6.10;;
75550;SDS011;65071;53.082;18.218;2023-08-20T12:19:12;6.80;;;6.20;;
75550;SDS011;65071;53.082;18.218;2023-08-20T12:21:38;6.40;;;5.50;;
75550;SDS011;65071;53.082;18.218;2023-08-20T12:24:06;6.60;;;6.00;;
75550;SDS011;65071;53.082;18.218;2023-08-20T12:26:33;6.30;;;5.70;;
75550;SDS011;65071;53.082;18.218;2023-08-20T12:29:00;6.70;;;6.00;;
75550;SDS011;65071;53.082;18.218;2023-08-20T12:31:26;5.50;;;4.90;;
75550;SDS011;65071;53.082;18.218;2023-08-20T12:33:53;6.20;;;5.60;;
75550;SDS011;65071;53.082;18.218;2023-08-20T12:36:20;7.60;;;5.70;;
75550;SDS011;65071;53.082;18.218;2023-08-20T12:38:46;5.70;;;5.20;;
75550;SDS011;65071;53.082;18.218;2023-08-20T12:41:13;6.40;;;5.80;;
75550;SDS011;65071;53.082;18.218;2023-08-20T12:43:39;7.00;;;5.60;;
75550;SDS011;65071;53.082;18.218;2023-08-20T12:46:06;7.20;;;6.10;;
75550;SDS011;65071;53.082;18.218;2023-08-20T12:48:33;6.90;;;5.80;;
75550;SDS011;65071;53.082;18.218;2023-08-20T12:50:59;6.10;;;5.50;;
75550;SDS011;65071;53.082;18.218;2023-08-20T12:53:26;6.40;;;5.80;;
75550;SDS011;65071;53.082;18.218;2023-08-20T12:55:53;7.10;;;6.40;;
75550;SDS011;65071;53.082;18.218;2023-08-20T12:58:19;6.60;;;5.90;;
75550;SDS011;65071;53.082;18.218;2023-08-20T13:00:46;6.30;;;5.60;;
75550;SDS011;65071;53.082;18.218;2023-08-20T13:03:13;6.20;;;5.60;;
75550;SDS011;65071;53.082;18.218;2023-08-20T13:05:40;7.00;;;5.80;;
75550;SDS011;65071;53.082;18.218;2023-08-20T13:08:07;5.80;;;5.30;;
75550;SDS011;65071;53.082;18.218;2023-08-20T13:10:34;6.70;;;5.90;;
75550;SDS011;65071;53.082;18.218;2023-08-20T13:13:01;6.30;;;5.70;;
75550;SDS011;65071;53.082;18.218;2023-08-20T13:15:28;6.40;;;5.70;;
75550;SDS011;65071;53.082;18.218;2023-08-20T13:17:56;6.50;;;5.90;;
75550;SDS011;65071;53.082;18.218;2023-08-20T13:20:22;5.60;;;5.10;;
75550;SDS011;65071;53.082;18.218;2023-08-20T13:22:51;6.00;;;5.40;;
75550;SDS011;65071;53.082;18.218;2023-08-20T13:25:18;6.40;;;5.50;;
75550;SDS011;65071;53.082;18.218;2023-08-20T13:27:47;6.40;;;5.80;;
75550;SDS011;65071;53.082;18.218;2023-08-20T13:30:14;7.30;;;6.00;;
75550;SDS011;65071;53.082;18.218;2023-08-20T13:32:40;6.60;;;6.00;;
75550;SDS011;65071;53.082;18.218;2023-08-20T13:35:07;5.70;;;5.00;;
75550;SDS011;65071;53.082;18.218;2023-08-20T13:37:36;5.90;;;5.40;;
75550;SDS011;65071;53.082;18.218;2023-08-20T13:40:03;5.90;;;5.30;;
75550;SDS011;65071;53.082;18.218;2023-08-20T13:42:30;5.90;;;5.40;;
75550;SDS011;65071;53.082;18.218;2023-08-20T13:44:57;6.00;;;5.40;;
75550;SDS011;65071;53.082;18.218;2023-08-20T13:47:24;6.60;;;5.60;;
75550;SDS011;65071;53.082;18.218;2023-08-20T13:49:50;5.60;;;5.00;;
75550;SDS011;65071;53.082;18.218;2023-08-20T13:52:17;6.00;;;5.40;;
75550;SDS011;65071;53.082;18.218;2023-08-20T13:54:43;6.20;;;5.60;;
75550;SDS011;65071;53.082;18.218;2023-08-20T13:57:10;5.90;;;5.20;;
75550;SDS011;65071;53.082;18.218;2023-08-20T13:59:36;5.90;;;5.40;;
75550;SDS011;65071;53.082;18.218;2023-08-20T14:02:03;5.80;;;5.20;;
75550;SDS011;65071;53.082;18.218;2023-08-20T14:04:29;5.50;;;5.00;;
75550;SDS011;65071;53.082;18.218;2023-08-20T14:06:56;5.70;;;5.20;;
75550;SDS011;65071;53.082;18.218;2023-08-20T14:09:22;5.40;;;4.70;;
75550;SDS011;65071;53.082;18.218;2023-08-20T14:11:49;6.10;;;5.00;;
75550;SDS011;65071;53.082;18.218;2023-08-20T14:14:16;6.10;;;5.60;;
75550;SDS011;65071;53.082;18.218;2023-08-20T14:16:42;6.20;;;5.50;;
75550;SDS011;65071;53.082;18.218;2023-08-20T14:19:09;6.10;;;5.60;;
75550;SDS011;65071;53.082;18.218;2023-08-20T14:21:36;7.60;;;5.30;;
75550;SDS011;65071;53.082;18.218;2023-08-20T14:24:03;6.00;;;5.00;;
75550;SDS011;65071;53.082;18.218;2023-08-20T14:26:30;5.50;;;4.90;;
75550;SDS011;65071;53.082;18.218;2023-08-20T14:28:56;5.60;;;5.00;;
75550;SDS011;65071;53.082;18.218;2023-08-20T14:31:23;5.20;;;4.70;;
75550;SDS011;65071;53.082;18.218;2023-08-20T14:33:49;5.50;;;5.00;;
75550;SDS011;65071;53.082;18.218;2023-08-20T14:36:16;5.90;;;4.60;;
75550;SDS011;65071;53.082;18.218;2023-08-20T14:38:42;6.60;;;4.70;;
75550;SDS011;65071;53.082;18.218;2023-08-20T14:41:09;5.80;;;5.00;;
75550;SDS011;65071;53.082;18.218;2023-08-20T14:43:36;5.80;;;5.30;;
75550;SDS011;65071;53.082;18.218;2023-08-20T14:46:02;6.80;;;5.00;;
75550;SDS011;65071;53.082;18.218;2023-08-20T14:48:29;5.80;;;5.00;;
75550;SDS011;65071;53.082;18.218;2023-08-20T14:50:55;5.90;;;5.20;;
75550;SDS011;65071;53.082;18.218;2023-08-20T14:53:22;6.50;;;5.30;;
75550;SDS011;65071;53.082;18.218;2023-08-20T14:55:49;6.50;;;5.50;;
75550;SDS011;65071;53.082;18.218;2023-08-20T14:58:15;6.00;;;5.50;;
75550;SDS011;65071;53.082;18.218;2023-08-20T15:00:42;5.90;;;5.20;;
75550;SDS011;65071;53.082;18.218;2023-08-20T15:03:08;7.10;;;5.10;;